sensor_id;sensor_type;location;lat;lon;timestamp;P1;durP1;ratioP1;P2;durP2;ratioP2
41635;SDS011;27623;51.966;4.602;2023-01-26T00:00:48;80.22;;;25.65;;
41635;SDS011;27623;51.966;4.602;2023-01-26T00:03:14;84.03;;;25.95;;
41635;SDS011;27623;51.966;4.602;2023-01-26T00:05:40;78.13;;;22.75;;
41635;SDS011;27623;51.966;4.602;2023-01-26T00:08:08;68.55;;;20.63;;
41635;SDS011;27623;51.966;4.602;2023-01-26T00:10:34;79.93;;;24.30;;
41635;SDS011;27623;51.966;4.602;2023-01-26T00:13:01;72.70;;;22.58;;
41635;SDS011;27623;51.966;4.602;2023-01-26T00:15:27;76.32;;;24.52;;
41635;SDS011;27623;51.966;4.602;2023-01-26T00:17:55;72.57;;;23.77;;
41635;SDS011;27623;51.966;4.602;2023-01-26T00:20:21;77.00;;;23.60;;
41635;SDS011;27623;51.966;4.602;2023-01-26T00:22:47;79.38;;;23.35;;
41635;SDS011;27623;51.966;4.602;2023-01-26T00:25:12;57.92;;;19.58;;
41635;SDS011;27623;51.966;4.602;2023-01-26T00:27:37;66.80;;;23.15;;
41635;SDS011;27623;51.966;4.602;2023-01-26T00:30:03;72.47;;;21.60;;
41635;SDS011;27623;51.966;4.602;2023-01-26T00:32:29;69.03;;;22.67;;
41635;SDS011;27623;51.966;4.602;2023-01-26T00:34:54;74.32;;;22.42;;
41635;SDS011;27623;51.966;4.602;2023-01-26T00:37:19;70.38;;;21.55;;
41635;SDS011;27623;51.966;4.602;2023-01-26T00:39:45;71.50;;;22.30;;
41635;SDS011;27623;51.966;4.602;2023-01-26T00:42:11;73.32;;;24.98;;
41635;SDS011;27623;51.966;4.602;2023-01-26T00:44:38;66.78;;;22.27;;
41635;SDS011;27623;51.966;4.602;2023-01-26T00:47:06;67.30;;;21.08;;
41635;SDS011;27623;51.966;4.602;2023-01-26T00:49:32;68.90;;;22.70;;
41635;SDS011;27623;51.966;4.602;2023-01-26T00:51:59;64.63;;;21.00;;
41635;SDS011;27623;51.966;4.602;2023-01-26T00:54:25;69.22;;;23.60;;
41635;SDS011;27623;51.966;4.602;2023-01-26T00:56:51;62.35;;;21.23;;
41635;SDS011;27623;51.966;4.602;2023-01-26T00:59:16;66.60;;;20.33;;
41635;SDS011;27623;51.966;4.602;2023-01-26T01:01:42;65.40;;;21.23;;
41635;SDS011;27623;51.966;4.602;2023-01-26T01:04:08;61.53;;;20.35;;
41635;SDS011;27623;51.966;4.602;2023-01-26T01:06:33;71.13;;;21.98;;
41635;SDS011;27623;51.966;4.602;2023-01-26T01:08:59;68.50;;;22.48;;
41635;SDS011;27623;51.966;4.602;2023-01-26T01:11:24;66.88;;;22.27;;
41635;SDS011;27623;51.966;4.602;2023-01-26T01:13:51;70.80;;;21.75;;
41635;SDS011;27623;51.966;4.602;2023-01-26T01:16:16;70.18;;;22.95;;
41635;SDS011;27623;51.966;4.602;2023-01-26T01:18:42;71.72;;;24.13;;
41635;SDS011;27623;51.966;4.602;2023-01-26T01:21:09;76.18;;;21.60;;
41635;SDS011;27623;51.966;4.602;2023-01-26T01:23:38;65.40;;;22.33;;
41635;SDS011;27623;51.966;4.602;2023-01-26T01:26:04;72.25;;;23.77;;
41635;SDS011;27623;51.966;4.602;2023-01-26T01:28:31;63.20;;;21.85;;
41635;SDS011;27623;51.966;4.602;2023-01-26T01:30:57;70.80;;;23.00;;
41635;SDS011;27623;51.966;4.602;2023-01-26T01:33:22;74.65;;;21.88;;
41635;SDS011;27623;51.966;4.602;2023-01-26T01:35:55;67.68;;;21.30;;
41635;SDS011;27623;51.966;4.602;2023-01-26T01:38:24;70.32;;;20.58;;
41635;SDS011;27623;51.966;4.602;2023-01-26T01:40:53;73.20;;;22.85;;
41635;SDS011;27623;51.966;4.602;2023-01-26T01:43:19;71.68;;;23.27;;
41635;SDS011;27623;51.966;4.602;2023-01-26T01:45:49;68.15;;;21.55;;
41635;SDS011;27623;51.966;4.602;2023-01-26T01:48:19;71.55;;;22.27;;
41635;SDS011;27623;51.966;4.602;2023-01-26T01:51:10;63.55;;;20.77;;
41635;SDS011;27623;51.966;4.602;2023-01-26T01:53:41;77.82;;;22.75;;
41635;SDS011;27623;51.966;4.602;2023-01-26T01:56:20;75.18;;;22.58;;
41635;SDS011;27623;51.966;4.602;2023-01-26T01:58:51;75.03;;;22.45;;
41635;SDS011;27623;51.966;4.602;2023-01-26T02:01:19;63.30;;;20.85;;
41635;SDS011;27623;51.966;4.602;2023-01-26T02:03:46;70.20;;;21.83;;
41635;SDS011;27623;51.966;4.602;2023-01-26T02:06:18;76.13;;;23.38;;
41635;SDS011;27623;51.966;4.602;2023-01-26T02:08:52;77.55;;;24.95;;
41635;SDS011;27623;51.966;4.602;2023-01-26T02:14:02;74.13;;;22.02;;
41635;SDS011;27623;51.966;4.602;2023-01-26T02:16:29;66.03;;;22.52;;
41635;SDS011;27623;51.966;4.602;2023-01-26T02:18:54;71.22;;;22.15;;
41635;SDS011;27623;51.966;4.602;2023-01-26T02:21:21;69.80;;;22.50;;
41635;SDS011;27623;51.966;4.602;2023-01-26T02:26:15;69.95;;;21.30;;
41635;SDS011;27623;51.966;4.602;2023-01-26T02:28:43;72.78;;;23.45;;
41635;SDS011;27623;51.966;4.602;2023-01-26T02:31:11;72.70;;;22.60;;
41635;SDS011;27623;51.966;4.602;2023-01-26T02:33:38;67.57;;;22.63;;
41635;SDS011;27623;51.966;4.602;2023-01-26T02:36:04;68.07;;;22.63;;
41635;SDS011;27623;51.966;4.602;2023-01-26T02:38:33;68.13;;;22.42;;
41635;SDS011;27623;51.966;4.602;2023-01-26T02:41:05;66.25;;;21.65;;
41635;SDS011;27623;51.966;4.602;2023-01-26T02:43:34;66.00;;;20.48;;
41635;SDS011;27623;51.966;4.602;2023-01-26T02:46:00;64.68;;;20.80;;
41635;SDS011;27623;51.966;4.602;2023-01-26T02:48:25;63.78;;;22.17;;
41635;SDS011;27623;51.966;4.602;2023-01-26T02:51:10;60.97;;;20.33;;
41635;SDS011;27623;51.966;4.602;2023-01-26T02:53:38;61.92;;;20.60;;
41635;SDS011;27623;51.966;4.602;2023-01-26T02:56:04;67.70;;;19.95;;
41635;SDS011;27623;51.966;4.602;2023-01-26T02:58:33;65.03;;;20.17;;
41635;SDS011;27623;51.966;4.602;2023-01-26T03:00:58;60.13;;;20.02;;
41635;SDS011;27623;51.966;4.602;2023-01-26T03:03:27;63.15;;;21.15;;
41635;SDS011;27623;51.966;4.602;2023-01-26T03:06:06;58.47;;;19.30;;
41635;SDS011;27623;51.966;4.602;2023-01-26T03:08:33;59.35;;;19.52;;
41635;SDS011;27623;51.966;4.602;2023-01-26T03:10:59;56.03;;;18.80;;
41635;SDS011;27623;51.966;4.602;2023-01-26T03:13:24;57.42;;;19.98;;
41635;SDS011;27623;51.966;4.602;2023-01-26T03:15:50;57.65;;;19.42;;
41635;SDS011;27623;51.966;4.602;2023-01-26T03:18:19;57.58;;;19.25;;
41635;SDS011;27623;51.966;4.602;2023-01-26T03:21:11;55.30;;;17.42;;
41635;SDS011;27623;51.966;4.602;2023-01-26T03:23:57;54.65;;;17.75;;
41635;SDS011;27623;51.966;4.602;2023-01-26T03:26:41;52.13;;;18.35;;
41635;SDS011;27623;51.966;4.602;2023-01-26T03:29:25;51.38;;;16.83;;
41635;SDS011;27623;51.966;4.602;2023-01-26T03:31:52;54.10;;;18.55;;
41635;SDS011;27623;51.966;4.602;2023-01-26T03:34:17;55.45;;;18.40;;
41635;SDS011;27623;51.966;4.602;2023-01-26T03:36:44;53.72;;;17.63;;
41635;SDS011;27623;51.966;4.602;2023-01-26T03:39:10;50.55;;;17.58;;
41635;SDS011;27623;51.966;4.602;2023-01-26T03:41:56;50.88;;;18.08;;
41635;SDS011;27623;51.966;4.602;2023-01-26T03:44:40;47.45;;;16.17;;
41635;SDS011;27623;51.966;4.602;2023-01-26T03:47:27;49.50;;;16.80;;
41635;SDS011;27623;51.966;4.602;2023-01-26T03:50:11;49.05;;;17.17;;
41635;SDS011;27623;51.966;4.602;2023-01-26T03:52:54;43.03;;;15.40;;
41635;SDS011;27623;51.966;4.602;2023-01-26T03:55:39;47.60;;;15.53;;
41635;SDS011;27623;51.966;4.602;2023-01-26T03:58:23;45.63;;;15.77;;
41635;SDS011;27623;51.966;4.602;2023-01-26T04:00:48;41.47;;;16.80;;
41635;SDS011;27623;51.966;4.602;2023-01-26T04:03:14;42.92;;;16.35;;
41635;SDS011;27623;51.966;4.602;2023-01-26T04:05:58;47.60;;;15.90;;
41635;SDS011;27623;51.966;4.602;2023-01-26T04:08:45;43.38;;;15.95;;
41635;SDS011;27623;51.966;4.602;2023-01-26T04:11:11;45.13;;;15.40;;
41635;SDS011;27623;51.966;4.602;2023-01-26T04:13:37;41.92;;;14.30;;
41635;SDS011;27623;51.966;4.602;2023-01-26T04:16:21;45.80;;;16.05;;
41635;SDS011;27623;51.966;4.602;2023-01-26T04:19:05;42.13;;;15.60;;
41635;SDS011;27623;51.966;4.602;2023-01-26T04:21:49;43.72;;;16.67;;
41635;SDS011;27623;51.966;4.602;2023-01-26T04:24:15;45.92;;;15.55;;
41635;SDS011;27623;51.966;4.602;2023-01-26T04:26:42;46.28;;;16.77;;
41635;SDS011;27623;51.966;4.602;2023-01-26T04:29:12;39.05;;;15.68;;
41635;SDS011;27623;51.966;4.602;2023-01-26T04:31:39;39.95;;;14.75;;
41635;SDS011;27623;51.966;4.602;2023-01-26T04:34:10;49.25;;;16.35;;
41635;SDS011;27623;51.966;4.602;2023-01-26T04:36:37;47.10;;;16.65;;
41635;SDS011;27623;51.966;4.602;2023-01-26T04:39:03;39.78;;;14.68;;
41635;SDS011;27623;51.966;4.602;2023-01-26T04:41:29;44.78;;;15.57;;
41635;SDS011;27623;51.966;4.602;2023-01-26T04:43:55;40.08;;;15.80;;
41635;SDS011;27623;51.966;4.602;2023-01-26T04:46:21;48.15;;;17.20;;
41635;SDS011;27623;51.966;4.602;2023-01-26T04:48:47;40.45;;;14.57;;
41635;SDS011;27623;51.966;4.602;2023-01-26T04:51:15;43.65;;;14.77;;
41635;SDS011;27623;51.966;4.602;2023-01-26T04:53:45;37.65;;;15.43;;
41635;SDS011;27623;51.966;4.602;2023-01-26T04:56:17;40.53;;;15.13;;
41635;SDS011;27623;51.966;4.602;2023-01-26T04:58:53;46.20;;;16.60;;
41635;SDS011;27623;51.966;4.602;2023-01-26T05:01:21;41.67;;;14.68;;
41635;SDS011;27623;51.966;4.602;2023-01-26T05:03:47;44.47;;;15.48;;
41635;SDS011;27623;51.966;4.602;2023-01-26T05:06:12;44.60;;;16.80;;
41635;SDS011;27623;51.966;4.602;2023-01-26T05:08:39;39.67;;;16.75;;
41635;SDS011;27623;51.966;4.602;2023-01-26T05:11:04;43.75;;;15.63;;
41635;SDS011;27623;51.966;4.602;2023-01-26T05:13:30;40.50;;;15.55;;
41635;SDS011;27623;51.966;4.602;2023-01-26T05:15:59;37.25;;;13.65;;
41635;SDS011;27623;51.966;4.602;2023-01-26T05:18:25;44.50;;;15.05;;
41635;SDS011;27623;51.966;4.602;2023-01-26T05:20:50;41.15;;;15.48;;
41635;SDS011;27623;51.966;4.602;2023-01-26T05:23:16;42.53;;;16.23;;
41635;SDS011;27623;51.966;4.602;2023-01-26T05:25:44;42.20;;;14.95;;
41635;SDS011;27623;51.966;4.602;2023-01-26T05:28:10;43.67;;;14.93;;
41635;SDS011;27623;51.966;4.602;2023-01-26T05:30:35;43.08;;;15.35;;
41635;SDS011;27623;51.966;4.602;2023-01-26T05:33:02;38.17;;;13.82;;
41635;SDS011;27623;51.966;4.602;2023-01-26T05:35:29;43.63;;;15.57;;
41635;SDS011;27623;51.966;4.602;2023-01-26T05:37:55;46.42;;;15.98;;
41635;SDS011;27623;51.966;4.602;2023-01-26T05:40:21;42.17;;;15.38;;
41635;SDS011;27623;51.966;4.602;2023-01-26T05:42:47;35.55;;;15.20;;
41635;SDS011;27623;51.966;4.602;2023-01-26T05:45:13;38.58;;;14.98;;
41635;SDS011;27623;51.966;4.602;2023-01-26T05:47:42;38.03;;;14.80;;
41635;SDS011;27623;51.966;4.602;2023-01-26T05:50:09;39.72;;;14.50;;
41635;SDS011;27623;51.966;4.602;2023-01-26T05:52:38;41.10;;;14.52;;
41635;SDS011;27623;51.966;4.602;2023-01-26T05:55:04;42.30;;;14.50;;
41635;SDS011;27623;51.966;4.602;2023-01-26T05:57:30;39.17;;;14.82;;
41635;SDS011;27623;51.966;4.602;2023-01-26T05:59:56;40.47;;;15.38;;
41635;SDS011;27623;51.966;4.602;2023-01-26T06:02:22;41.75;;;15.57;;
41635;SDS011;27623;51.966;4.602;2023-01-26T06:04:48;44.65;;;16.70;;
41635;SDS011;27623;51.966;4.602;2023-01-26T06:07:13;38.80;;;15.55;;
41635;SDS011;27623;51.966;4.602;2023-01-26T06:09:39;44.42;;;16.35;;
41635;SDS011;27623;51.966;4.602;2023-01-26T06:12:05;42.00;;;14.52;;
41635;SDS011;27623;51.966;4.602;2023-01-26T06:14:41;42.60;;;15.63;;
41635;SDS011;27623;51.966;4.602;2023-01-26T06:17:07;41.95;;;15.73;;
41635;SDS011;27623;51.966;4.602;2023-01-26T06:19:32;49.20;;;16.85;;
41635;SDS011;27623;51.966;4.602;2023-01-26T06:21:58;44.45;;;16.38;;
41635;SDS011;27623;51.966;4.602;2023-01-26T06:24:23;41.40;;;15.13;;
41635;SDS011;27623;51.966;4.602;2023-01-26T06:26:49;53.83;;;16.52;;
41635;SDS011;27623;51.966;4.602;2023-01-26T06:29:14;48.60;;;16.63;;
41635;SDS011;27623;51.966;4.602;2023-01-26T06:31:40;46.97;;;16.23;;
41635;SDS011;27623;51.966;4.602;2023-01-26T06:34:07;44.85;;;15.70;;
41635;SDS011;27623;51.966;4.602;2023-01-26T06:36:33;50.92;;;15.93;;
41635;SDS011;27623;51.966;4.602;2023-01-26T06:38:58;46.15;;;16.30;;
41635;SDS011;27623;51.966;4.602;2023-01-26T06:41:24;55.55;;;17.67;;
41635;SDS011;27623;51.966;4.602;2023-01-26T06:43:49;48.83;;;15.18;;
41635;SDS011;27623;51.966;4.602;2023-01-26T06:46:15;48.15;;;16.17;;
41635;SDS011;27623;51.966;4.602;2023-01-26T06:48:41;52.83;;;17.35;;
41635;SDS011;27623;51.966;4.602;2023-01-26T06:53:50;56.72;;;17.92;;
41635;SDS011;27623;51.966;4.602;2023-01-26T06:56:21;60.30;;;17.05;;
41635;SDS011;27623;51.966;4.602;2023-01-26T06:58:49;60.28;;;16.75;;
41635;SDS011;27623;51.966;4.602;2023-01-26T07:01:16;55.75;;;15.88;;
41635;SDS011;27623;51.966;4.602;2023-01-26T07:03:43;50.42;;;15.68;;
41635;SDS011;27623;51.966;4.602;2023-01-26T07:06:08;41.88;;;14.50;;
41635;SDS011;27623;51.966;4.602;2023-01-26T07:08:36;46.00;;;13.98;;
41635;SDS011;27623;51.966;4.602;2023-01-26T07:11:03;45.80;;;15.43;;
41635;SDS011;27623;51.966;4.602;2023-01-26T07:13:29;44.42;;;17.00;;
41635;SDS011;27623;51.966;4.602;2023-01-26T07:16:08;50.60;;;14.35;;
41635;SDS011;27623;51.966;4.602;2023-01-26T07:18:35;46.45;;;16.38;;
41635;SDS011;27623;51.966;4.602;2023-01-26T07:21:04;44.00;;;14.23;;
41635;SDS011;27623;51.966;4.602;2023-01-26T07:23:32;46.33;;;14.77;;
41635;SDS011;27623;51.966;4.602;2023-01-26T07:25:58;39.40;;;14.27;;
41635;SDS011;27623;51.966;4.602;2023-01-26T07:28:24;44.22;;;15.10;;
41635;SDS011;27623;51.966;4.602;2023-01-26T07:30:50;34.80;;;11.82;;
41635;SDS011;27623;51.966;4.602;2023-01-26T07:33:17;41.00;;;12.65;;
41635;SDS011;27623;51.966;4.602;2023-01-26T07:35:43;37.55;;;11.95;;
41635;SDS011;27623;51.966;4.602;2023-01-26T07:38:09;31.33;;;11.30;;
41635;SDS011;27623;51.966;4.602;2023-01-26T07:40:34;39.38;;;12.50;;
41635;SDS011;27623;51.966;4.602;2023-01-26T07:42:59;32.20;;;9.23;;
41635;SDS011;27623;51.966;4.602;2023-01-26T07:45:25;35.67;;;10.75;;
41635;SDS011;27623;51.966;4.602;2023-01-26T07:47:53;34.70;;;10.48;;
41635;SDS011;27623;51.966;4.602;2023-01-26T07:50:19;26.08;;;9.15;;
41635;SDS011;27623;51.966;4.602;2023-01-26T07:52:48;34.92;;;9.40;;
41635;SDS011;27623;51.966;4.602;2023-01-26T07:55:13;29.60;;;9.23;;
41635;SDS011;27623;51.966;4.602;2023-01-26T07:57:39;33.88;;;8.10;;
41635;SDS011;27623;51.966;4.602;2023-01-26T08:00:06;32.78;;;6.55;;
41635;SDS011;27623;51.966;4.602;2023-01-26T08:02:32;19.15;;;5.55;;
41635;SDS011;27623;51.966;4.602;2023-01-26T08:04:59;31.10;;;5.43;;
41635;SDS011;27623;51.966;4.602;2023-01-26T08:07:26;16.33;;;4.25;;
41635;SDS011;27623;51.966;4.602;2023-01-26T08:09:52;17.88;;;5.18;;
41635;SDS011;27623;51.966;4.602;2023-01-26T08:12:17;15.13;;;4.25;;
41635;SDS011;27623;51.966;4.602;2023-01-26T08:14:42;15.95;;;3.22;;
41635;SDS011;27623;51.966;4.602;2023-01-26T08:17:08;20.02;;;3.47;;
41635;SDS011;27623;51.966;4.602;2023-01-26T08:19:33;20.73;;;2.97;;
41635;SDS011;27623;51.966;4.602;2023-01-26T08:22:00;13.75;;;4.70;;
41635;SDS011;27623;51.966;4.602;2023-01-26T08:24:25;14.95;;;3.72;;
41635;SDS011;27623;51.966;4.602;2023-01-26T08:26:52;20.73;;;3.42;;
41635;SDS011;27623;51.966;4.602;2023-01-26T08:29:23;20.92;;;3.33;;
41635;SDS011;27623;51.966;4.602;2023-01-26T08:31:48;21.55;;;3.60;;
41635;SDS011;27623;51.966;4.602;2023-01-26T08:34:19;21.65;;;4.38;;
41635;SDS011;27623;51.966;4.602;2023-01-26T08:36:52;28.73;;;7.88;;
41635;SDS011;27623;51.966;4.602;2023-01-26T08:39:17;28.77;;;7.50;;
41635;SDS011;27623;51.966;4.602;2023-01-26T08:41:43;35.25;;;8.13;;
41635;SDS011;27623;51.966;4.602;2023-01-26T08:44:12;16.20;;;4.32;;
41635;SDS011;27623;51.966;4.602;2023-01-26T08:46:37;21.23;;;4.35;;
41635;SDS011;27623;51.966;4.602;2023-01-26T08:49:03;18.65;;;4.35;;
41635;SDS011;27623;51.966;4.602;2023-01-26T08:51:28;18.90;;;3.42;;
41635;SDS011;27623;51.966;4.602;2023-01-26T08:53:56;21.10;;;2.40;;
41635;SDS011;27623;51.966;4.602;2023-01-26T08:56:22;25.42;;;3.17;;
41635;SDS011;27623;51.966;4.602;2023-01-26T08:58:49;26.77;;;3.88;;
41635;SDS011;27623;51.966;4.602;2023-01-26T09:01:15;19.38;;;3.03;;
41635;SDS011;27623;51.966;4.602;2023-01-26T09:03:43;18.17;;;3.10;;
41635;SDS011;27623;51.966;4.602;2023-01-26T09:06:10;23.77;;;2.80;;
41635;SDS011;27623;51.966;4.602;2023-01-26T09:08:38;20.67;;;2.75;;
41635;SDS011;27623;51.966;4.602;2023-01-26T09:11:04;29.23;;;3.97;;
41635;SDS011;27623;51.966;4.602;2023-01-26T09:13:30;20.48;;;3.58;;
41635;SDS011;27623;51.966;4.602;2023-01-26T09:15:56;21.27;;;3.20;;
41635;SDS011;27623;51.966;4.602;2023-01-26T09:18:24;15.27;;;3.15;;
41635;SDS011;27623;51.966;4.602;2023-01-26T09:20:49;20.48;;;3.10;;
41635;SDS011;27623;51.966;4.602;2023-01-26T09:23:19;24.08;;;4.15;;
41635;SDS011;27623;51.966;4.602;2023-01-26T09:25:45;24.35;;;3.08;;
41635;SDS011;27623;51.966;4.602;2023-01-26T09:28:17;22.10;;;3.35;;
41635;SDS011;27623;51.966;4.602;2023-01-26T09:30:42;24.05;;;2.63;;
41635;SDS011;27623;51.966;4.602;2023-01-26T09:33:08;23.48;;;2.90;;
41635;SDS011;27623;51.966;4.602;2023-01-26T09:35:33;26.30;;;3.83;;
41635;SDS011;27623;51.966;4.602;2023-01-26T09:37:59;27.20;;;3.67;;
41635;SDS011;27623;51.966;4.602;2023-01-26T09:42:57;25.35;;;3.17;;
41635;SDS011;27623;51.966;4.602;2023-01-26T09:45:40;20.02;;;2.83;;
41635;SDS011;27623;51.966;4.602;2023-01-26T09:48:32;18.42;;;3.45;;
41635;SDS011;27623;51.966;4.602;2023-01-26T09:51:11;29.88;;;3.50;;
41635;SDS011;27623;51.966;4.602;2023-01-26T09:56:17;22.40;;;3.45;;
41635;SDS011;27623;51.966;4.602;2023-01-26T09:58:53;22.35;;;3.88;;
41635;SDS011;27623;51.966;4.602;2023-01-26T10:01:29;20.20;;;2.92;;
41635;SDS011;27623;51.966;4.602;2023-01-26T10:06:45;23.15;;;4.70;;
41635;SDS011;27623;51.966;4.602;2023-01-26T10:09:16;20.23;;;3.50;;
41635;SDS011;27623;51.966;4.602;2023-01-26T10:11:52;21.30;;;2.75;;
41635;SDS011;27623;51.966;4.602;2023-01-26T10:16:54;26.05;;;3.28;;
41635;SDS011;27623;51.966;4.602;2023-01-26T10:19:30;24.10;;;3.88;;
41635;SDS011;27623;51.966;4.602;2023-01-26T10:22:04;19.27;;;3.95;;
41635;SDS011;27623;51.966;4.602;2023-01-26T10:24:36;19.05;;;3.88;;
41635;SDS011;27623;51.966;4.602;2023-01-26T10:27:05;16.95;;;2.80;;
41635;SDS011;27623;51.966;4.602;2023-01-26T10:29:35;21.63;;;3.58;;
41635;SDS011;27623;51.966;4.602;2023-01-26T10:32:00;21.80;;;3.25;;
41635;SDS011;27623;51.966;4.602;2023-01-26T10:34:26;19.05;;;3.47;;
41635;SDS011;27623;51.966;4.602;2023-01-26T10:36:52;21.27;;;3.00;;
41635;SDS011;27623;51.966;4.602;2023-01-26T10:39:26;19.73;;;4.10;;
41635;SDS011;27623;51.966;4.602;2023-01-26T10:41:55;19.88;;;3.00;;
41635;SDS011;27623;51.966;4.602;2023-01-26T10:44:35;30.27;;;2.70;;
41635;SDS011;27623;51.966;4.602;2023-01-26T10:49:37;25.17;;;2.95;;
41635;SDS011;27623;51.966;4.602;2023-01-26T10:52:07;17.73;;;3.20;;
41635;SDS011;27623;51.966;4.602;2023-01-26T10:54:35;17.40;;;2.88;;
41635;SDS011;27623;51.966;4.602;2023-01-26T10:59:40;17.25;;;2.97;;
41635;SDS011;27623;51.966;4.602;2023-01-26T11:04:35;25.58;;;4.75;;
41635;SDS011;27623;51.966;4.602;2023-01-26T11:07:18;24.60;;;4.80;;
41635;SDS011;27623;51.966;4.602;2023-01-26T11:09:49;22.50;;;2.55;;
41635;SDS011;27623;51.966;4.602;2023-01-26T11:12:16;17.42;;;3.05;;
41635;SDS011;27623;51.966;4.602;2023-01-26T11:15:03;24.15;;;2.85;;
41635;SDS011;27623;51.966;4.602;2023-01-26T11:17:37;19.00;;;2.88;;
41635;SDS011;27623;51.966;4.602;2023-01-26T11:34:51;18.92;;;2.72;;
41635;SDS011;27623;51.966;4.602;2023-01-26T11:57:07;22.05;;;2.70;;
41635;SDS011;27623;51.966;4.602;2023-01-26T11:59:47;12.98;;;2.10;;
41635;SDS011;27623;51.966;4.602;2023-01-26T12:02:52;16.38;;;2.25;;
41635;SDS011;27623;51.966;4.602;2023-01-26T12:05:22;16.05;;;2.88;;
41635;SDS011;27623;51.966;4.602;2023-01-26T12:10:32;7.35;;;1.02;;
41635;SDS011;27623;51.966;4.602;2023-01-26T12:13:27;10.00;;;2.28;;
41635;SDS011;27623;51.966;4.602;2023-01-26T12:16:19;13.23;;;1.77;;
41635;SDS011;27623;51.966;4.602;2023-01-26T12:19:35;15.13;;;2.28;;
41635;SDS011;27623;51.966;4.602;2023-01-26T12:21:50;13.77;;;1.70;;
41635;SDS011;27623;51.966;4.602;2023-01-26T12:24:25;12.13;;;1.50;;
41635;SDS011;27623;51.966;4.602;2023-01-26T12:27:01;16.25;;;1.90;;
41635;SDS011;27623;51.966;4.602;2023-01-26T12:29:33;10.82;;;1.88;;
41635;SDS011;27623;51.966;4.602;2023-01-26T12:32:10;12.18;;;1.88;;
41635;SDS011;27623;51.966;4.602;2023-01-26T12:34:38;12.75;;;1.85;;
41635;SDS011;27623;51.966;4.602;2023-01-26T12:39:50;12.77;;;1.90;;
41635;SDS011;27623;51.966;4.602;2023-01-26T12:42:26;14.88;;;1.60;;
41635;SDS011;27623;51.966;4.602;2023-01-26T12:45:02;9.38;;;1.83;;
41635;SDS011;27623;51.966;4.602;2023-01-26T12:50:30;14.57;;;2.17;;
41635;SDS011;27623;51.966;4.602;2023-01-26T12:53:36;8.82;;;1.73;;
41635;SDS011;27623;51.966;4.602;2023-01-26T12:56:30;14.35;;;1.63;;
41635;SDS011;27623;51.966;4.602;2023-01-26T12:59:28;11.98;;;1.65;;
41635;SDS011;27623;51.966;4.602;2023-01-26T13:01:56;20.15;;;2.28;;
41635;SDS011;27623;51.966;4.602;2023-01-26T13:04:22;12.70;;;1.55;;
41635;SDS011;27623;51.966;4.602;2023-01-26T13:07:25;8.23;;;1.42;;
41635;SDS011;27623;51.966;4.602;2023-01-26T13:15:20;15.15;;;1.70;;
41635;SDS011;27623;51.966;4.602;2023-01-26T13:20:22;7.32;;;1.08;;
41635;SDS011;27623;51.966;4.602;2023-01-26T13:28:35;15.20;;;2.03;;
41635;SDS011;27623;51.966;4.602;2023-01-26T13:31:04;5.70;;;1.33;;
41635;SDS011;27623;51.966;4.602;2023-01-26T13:33:30;10.77;;;1.80;;
41635;SDS011;27623;51.966;4.602;2023-01-26T13:35:56;7.88;;;0.95;;
41635;SDS011;27623;51.966;4.602;2023-01-26T13:38:33;4.97;;;1.20;;
41635;SDS011;27623;51.966;4.602;2023-01-26T13:41:06;6.80;;;1.10;;
41635;SDS011;27623;51.966;4.602;2023-01-26T13:43:34;6.22;;;0.77;;
41635;SDS011;27623;51.966;4.602;2023-01-26T13:46:13;6.97;;;1.00;;
41635;SDS011;27623;51.966;4.602;2023-01-26T13:48:47;4.45;;;0.80;;
41635;SDS011;27623;51.966;4.602;2023-01-26T13:51:30;6.50;;;1.67;;
41635;SDS011;27623;51.966;4.602;2023-01-26T13:56:37;7.03;;;1.17;;
41635;SDS011;27623;51.966;4.602;2023-01-26T13:59:14;9.07;;;1.98;;
41635;SDS011;27623;51.966;4.602;2023-01-26T14:01:42;6.25;;;1.20;;
41635;SDS011;27623;51.966;4.602;2023-01-26T14:04:16;10.90;;;1.20;;
41635;SDS011;27623;51.966;4.602;2023-01-26T14:09:27;10.80;;;1.77;;
41635;SDS011;27623;51.966;4.602;2023-01-26T14:12:00;9.55;;;1.20;;
41635;SDS011;27623;51.966;4.602;2023-01-26T14:14:28;13.13;;;1.52;;
41635;SDS011;27623;51.966;4.602;2023-01-26T14:16:58;8.68;;;1.50;;
41635;SDS011;27623;51.966;4.602;2023-01-26T14:19:25;8.80;;;1.92;;
41635;SDS011;27623;51.966;4.602;2023-01-26T14:24:35;11.18;;;1.40;;
41635;SDS011;27623;51.966;4.602;2023-01-26T14:27:06;11.35;;;2.20;;
41635;SDS011;27623;51.966;4.602;2023-01-26T14:29:48;6.20;;;1.20;;
41635;SDS011;27623;51.966;4.602;2023-01-26T14:32:14;10.43;;;1.33;;
41635;SDS011;27623;51.966;4.602;2023-01-26T14:34:49;10.75;;;2.30;;
41635;SDS011;27623;51.966;4.602;2023-01-26T14:37:16;10.50;;;1.77;;
41635;SDS011;27623;51.966;4.602;2023-01-26T14:39:42;7.43;;;1.60;;
41635;SDS011;27623;51.966;4.602;2023-01-26T14:42:13;6.97;;;0.98;;
41635;SDS011;27623;51.966;4.602;2023-01-26T14:44:40;10.43;;;1.35;;
41635;SDS011;27623;51.966;4.602;2023-01-26T14:47:08;5.95;;;1.20;;
41635;SDS011;27623;51.966;4.602;2023-01-26T14:49:43;8.20;;;1.30;;
41635;SDS011;27623;51.966;4.602;2023-01-26T14:52:23;7.70;;;1.33;;
41635;SDS011;27623;51.966;4.602;2023-01-26T14:54:55;10.73;;;1.40;;
41635;SDS011;27623;51.966;4.602;2023-01-26T14:57:24;5.18;;;1.17;;
41635;SDS011;27623;51.966;4.602;2023-01-26T14:59:54;6.22;;;1.08;;
41635;SDS011;27623;51.966;4.602;2023-01-26T15:02:45;12.25;;;1.75;;
41635;SDS011;27623;51.966;4.602;2023-01-26T15:05:12;10.10;;;1.70;;
41635;SDS011;27623;51.966;4.602;2023-01-26T15:07:53;6.28;;;0.82;;
41635;SDS011;27623;51.966;4.602;2023-01-26T15:10:33;5.20;;;0.90;;
41635;SDS011;27623;51.966;4.602;2023-01-26T15:13:16;7.47;;;1.70;;
41635;SDS011;27623;51.966;4.602;2023-01-26T15:15:46;11.13;;;2.03;;
41635;SDS011;27623;51.966;4.602;2023-01-26T15:18:28;11.25;;;2.38;;
41635;SDS011;27623;51.966;4.602;2023-01-26T15:20:56;8.23;;;1.50;;
41635;SDS011;27623;51.966;4.602;2023-01-26T15:23:51;8.38;;;2.15;;
41635;SDS011;27623;51.966;4.602;2023-01-26T15:26:26;10.20;;;1.70;;
41635;SDS011;27623;51.966;4.602;2023-01-26T15:28:57;12.00;;;1.38;;
41635;SDS011;27623;51.966;4.602;2023-01-26T15:31:29;9.90;;;1.40;;
41635;SDS011;27623;51.966;4.602;2023-01-26T15:36:58;9.75;;;1.20;;
41635;SDS011;27623;51.966;4.602;2023-01-26T15:39:24;9.60;;;1.30;;
41635;SDS011;27623;51.966;4.602;2023-01-26T15:44:50;10.70;;;1.20;;
41635;SDS011;27623;51.966;4.602;2023-01-26T15:47:16;5.35;;;1.30;;
41635;SDS011;27623;51.966;4.602;2023-01-26T15:49:41;8.38;;;1.20;;
41635;SDS011;27623;51.966;4.602;2023-01-26T15:52:16;7.38;;;1.60;;
41635;SDS011;27623;51.966;4.602;2023-01-26T15:54:43;7.90;;;1.23;;
41635;SDS011;27623;51.966;4.602;2023-01-26T15:57:10;8.07;;;1.88;;
41635;SDS011;27623;51.966;4.602;2023-01-26T15:59:36;6.22;;;1.00;;
41635;SDS011;27623;51.966;4.602;2023-01-26T16:02:02;9.82;;;1.00;;
41635;SDS011;27623;51.966;4.602;2023-01-26T16:04:28;5.63;;;0.95;;
41635;SDS011;27623;51.966;4.602;2023-01-26T16:06:53;12.68;;;1.23;;
41635;SDS011;27623;51.966;4.602;2023-01-26T16:09:19;9.75;;;1.25;;
41635;SDS011;27623;51.966;4.602;2023-01-26T16:11:49;12.95;;;1.95;;
41635;SDS011;27623;51.966;4.602;2023-01-26T16:14:16;6.75;;;0.80;;
41635;SDS011;27623;51.966;4.602;2023-01-26T16:16:41;10.52;;;1.63;;
41635;SDS011;27623;51.966;4.602;2023-01-26T16:19:07;12.60;;;1.25;;
41635;SDS011;27623;51.966;4.602;2023-01-26T16:21:33;5.07;;;0.95;;